Aviation Digital Data Service (ADDS)

Output produced by METARs form (2108 UTC 24 March 2019)
found at http://www.aviationweather.gov/metar/data/
 
Forecast for: ZBAA (BEIJING/PEKING , CN)
Text: TAF ZBAA 241520Z 2418/2518 34004MPS CAVOK TX21/2507Z TN03/2421Z
Forecast period: 1800 UTC 24 March 2019 to 1800 UTC 25 March 2019
Forecast type: FROM: standard forecast or significant change
Winds: from the NNW (340 degrees) at 9 MPH (8 knots; 4.1 m/s)
Visibility: 6 or more miles 10+ km)
Ceiling: unknown
Clouds: missing
Weather: no significant weather forecast for this period